Terminal Aerodrome Forecast
Issued by NWS

Home | Current Version | Previous Version | Text Only | Print | Product List | Glossary On
Versions: 1 2 3 4 5 6 7 8 9 10 11 12 13 14 15 16 17 18 19 20 21 22
000
FTUS41 KRNK 281724
TAFLWB
TAF
KLWB 281724Z 2818/2918 22006KT P6SM -SHRA VCTS BKN018CB OVC030
      TEMPO 2819/2821 3SM SHRA OVC012
     FM282300 26005KT 6SM -SHRA OVC025
     FM290300 27004KT 3SM -SHRA OVC008
     FM290800 28004KT P6SM OVC008=

USA.gov is the U.S. government's official web portal to all federal, state and local government web resources and services.